Messwerte Luanda

Temperatur

Temperatur
°C
1594281600 9.00 9.00 23
1594285200 10.00 10.00 23
1594288800 11.00 11.00 24
1594292400 12.00 12.00 26
1594296000 13.00 13.00 26
1594299600 14.00 14.00 25
1594303200 15.00 15.00 25
1594306800 16.00 16.00 25
1594310400 17.00 17.00 24
1594314000 18.00 18.00
1594317600 19.00 19.00 23
1594321200 20.00 20.00 22
1594324800 21.00 21.00 22
1594328400 22.00 22.00 22
1594332000 23.00 23.00
1594335600 0.00 0.00 22
1594339200 1.00 1.00 22
1594342800 2.00 2.00
1594346400 3.00 3.00
1594350000 4.00 4.00 22
1594353600 5.00 5.00 22
1594357200 6.00 6.00
1594360800 7.00 7.00 21
1594364400 8.00 8.00 22

Aktuellste Messwerte

Wettercharakter
Wetter: Nebel
Temperatur
22 °C
Feuchtigkeit
85 %
Wind
5 km/h, -
Luftdruck
1013 hPa
Messzeit: 10. Juli 2020, 8.00Datenquelle: METAR

Weitere Messstationen in der Nähe

Messstation Temperatur Entfernung
Pointe-Noire 23 °C 471 km

Wind

Windrichtung Böen Mittelwind
° km/h km/h
1594281600 9.00 8.00 - 9.00 5
1594285200 10.00 9.00 - 10.00 5
1594288800 11.00 10.00 - 11.00 120° 10
1594292400 12.00 11.00 - 12.00 5
1594296000 13.00 12.00 - 13.00 270° 5
1594299600 14.00 13.00 - 14.00 270° 15
1594303200 15.00 14.00 - 15.00 240° 15
1594306800 16.00 15.00 - 16.00 250° 15
1594310400 17.00 16.00 - 17.00 240° 15
1594314000 18.00 17.00 - 18.00
1594317600 19.00 18.00 - 19.00 200° 10
1594321200 20.00 19.00 - 20.00 180° 15
1594324800 21.00 20.00 - 21.00 160° 10
1594328400 22.00 21.00 - 22.00 170° 10
1594332000 23.00 22.00 - 23.00 140° 10
1594335600 0.00 23.00 - 0.00 5
1594339200 1.00 0.00 - 1.00 190° 5
1594342800 2.00 1.00 - 2.00
1594346400 3.00 2.00 - 3.00
1594350000 4.00 3.00 - 4.00 150° 5
1594353600 5.00 4.00 - 5.00 120° 5
1594357200 6.00 5.00 - 6.00
1594360800 7.00 6.00 - 7.00 0
1594364400 8.00 7.00 - 8.00 5

Ihre Wetterstation

Fehlt Ihre Wetterstation auf unserem Portal?

Schreiben Sie an network@meteonews.ch